createdAt,value
2022-11-04T08:07:18.441Z,13.14
2022-11-04T08:09:45.272Z,13.15
2022-11-04T08:12:12.080Z,13.15
2022-11-04T08:14:39.001Z,13.16
2022-11-04T08:17:05.806Z,13.21
2022-11-04T08:19:32.918Z,13.24
2022-11-04T08:21:59.773Z,13.24
2022-11-04T08:24:26.677Z,13.28
2022-11-04T08:26:53.524Z,13.28
2022-11-04T08:29:20.569Z,13.30
2022-11-04T08:31:47.637Z,13.34
2022-11-04T08:34:17.011Z,13.39
2022-11-04T08:36:44.399Z,13.42
2022-11-04T08:39:12.661Z,13.43
2022-11-04T08:49:31.898Z,13.51
2022-11-04T08:52:00.713Z,13.55
2022-11-04T08:54:27.717Z,13.57
2022-11-04T09:25:07.487Z,13.86
2022-11-04T09:27:34.300Z,13.85
2022-11-04T09:30:01.771Z,13.91
2022-11-04T09:32:28.578Z,13.95
2022-11-04T09:34:55.367Z,14.01
2022-11-04T09:37:22.193Z,13.97
2022-11-04T09:39:53.688Z,14.02
2022-11-04T09:42:45.392Z,14.07
2022-11-04T09:45:21.564Z,14.10
2022-11-04T09:47:51.557Z,14.15
2022-11-04T09:50:25.303Z,14.20
2022-11-04T09:52:57.552Z,14.23
2022-11-04T09:55:50.429Z,14.26
2022-11-04T09:58:17.552Z,14.29
2022-11-04T10:00:51.872Z,14.31
2022-11-04T10:03:31.503Z,14.34
2022-11-04T10:06:23.014Z,14.37
2022-11-04T10:09:07.178Z,14.41
2022-11-04T10:11:49.798Z,14.44
2022-11-04T10:14:37.407Z,14.47
2022-11-04T10:17:30.137Z,14.49
2022-11-04T10:20:19.545Z,14.53
2022-11-04T10:23:06.053Z,14.55
2022-11-04T10:25:48.773Z,14.61
2022-11-04T10:28:19.114Z,14.63
2022-11-04T10:30:49.299Z,14.68
2022-11-04T10:33:41.833Z,14.66
2022-11-04T10:36:10.059Z,14.68
2022-11-04T10:38:47.415Z,14.70
2022-11-04T10:41:23.085Z,14.72
2022-11-04T10:43:51.843Z,14.76
2022-11-04T10:50:31.429Z,14.84
2022-11-04T10:53:28.981Z,14.85
2022-11-04T10:56:07.407Z,14.88
2022-11-04T10:58:37.240Z,14.92
2022-11-04T11:01:24.453Z,14.97
2022-11-04T11:03:51.415Z,15.01
2022-11-04T11:06:32.268Z,15.05
2022-11-04T11:09:15.437Z,15.05
2022-11-04T11:11:50.185Z,15.09
2022-11-04T11:14:37.154Z,15.12
2022-11-04T11:17:16.172Z,15.13
2022-11-04T11:19:56.738Z,15.17
2022-11-04T11:22:47.233Z,15.16
2022-11-04T11:25:20.097Z,15.18
2022-11-04T11:27:58.423Z,15.23
2022-11-04T11:30:29.396Z,15.27
2022-11-04T11:33:08.710Z,15.29
2022-11-04T11:35:42.376Z,15.32
2022-11-04T11:38:28.213Z,15.31
2022-11-04T11:41:24.037Z,15.36
2022-11-04T11:43:53.056Z,15.38
2022-11-04T11:46:28.752Z,15.42
2022-11-04T11:49:01.448Z,15.44
2022-11-04T11:51:39.281Z,15.40
2022-11-04T11:54:27.056Z,15.37
2022-11-04T11:57:13.329Z,15.34
2022-11-04T12:03:02.543Z,15.31
2022-11-04T12:12:13.730Z,15.30
2022-11-04T12:15:14.957Z,15.28
2022-11-04T12:18:02.867Z,15.32
2022-11-04T12:20:35.460Z,15.40
2022-11-04T12:23:05.687Z,15.40
2022-11-04T12:26:13.404Z,15.38
2022-11-04T12:29:07.821Z,15.41
2022-11-04T12:31:52.351Z,15.34
2022-11-04T12:34:31.103Z,15.33
2022-11-04T12:37:00.942Z,15.34
2022-11-04T12:39:46.145Z,15.36
2022-11-04T12:42:32.717Z,15.34
2022-11-04T12:45:50.876Z,15.34
2022-11-04T12:48:37.916Z,15.31
2022-11-04T12:51:23.232Z,15.32
2022-11-04T12:54:14.618Z,15.31
2022-11-04T12:56:41.838Z,15.32
2022-11-04T12:59:30.892Z,15.34
2022-11-04T13:02:02.536Z,15.38
2022-11-04T13:04:44.383Z,15.37
2022-11-04T13:07:21.855Z,15.44
2022-11-04T13:09:55.186Z,15.44
2022-11-04T13:12:24.681Z,15.47
2022-11-04T13:14:56.668Z,15.52
2022-11-04T13:17:27.571Z,15.58
2022-11-04T13:19:56.927Z,15.59
2022-11-04T13:22:26.714Z,15.57
2022-11-04T13:25:04.224Z,15.58
2022-11-04T13:27:53.982Z,15.58
2022-11-04T13:30:27.747Z,15.53
2022-11-04T13:33:02.736Z,15.50
